createdAt,value
2017-12-13T06:01:41.273Z,1.30
2017-12-13T06:04:10.969Z,1.30
2017-12-13T06:06:40.679Z,1.30
2017-12-13T06:09:10.382Z,1.30
2017-12-13T06:11:40.427Z,1.30
2017-12-13T06:14:10.621Z,1.30
2017-12-13T06:16:40.288Z,1.30
2017-12-13T06:19:10.580Z,1.30
2017-12-13T06:21:40.508Z,1.30
2017-12-13T06:24:10.817Z,1.30
2017-12-13T06:26:40.609Z,1.30
2017-12-13T06:29:10.528Z,1.30
2017-12-13T06:31:41.049Z,1.30
2017-12-13T06:34:10.574Z,1.30
2017-12-13T06:36:40.474Z,1.30
2017-12-13T06:39:10.178Z,1.30
2017-12-13T06:41:39.804Z,1.30
2017-12-13T06:44:09.640Z,1.30
2017-12-13T06:46:39.518Z,1.30
2017-12-13T06:49:09.220Z,1.30
2017-12-13T06:51:39.228Z,1.30
2017-12-13T06:54:09.033Z,1.30
2017-12-13T06:56:38.630Z,1.30
2017-12-13T06:59:08.567Z,1.30
2017-12-13T07:01:38.248Z,1.20
2017-12-13T07:04:07.809Z,1.20
2017-12-13T07:06:37.597Z,1.30
2017-12-13T07:09:07.319Z,1.30
2017-12-13T07:11:37.210Z,1.30
2017-12-13T07:14:06.931Z,1.20
2017-12-13T07:16:37.266Z,1.20
2017-12-13T07:19:07.965Z,1.20
2017-12-13T07:21:37.596Z,1.20
2017-12-13T07:24:07.399Z,1.30
2017-12-13T07:26:37.732Z,1.20
2017-12-13T07:29:07.571Z,1.30
2017-12-13T07:31:37.355Z,1.30
2017-12-13T07:34:06.972Z,1.30
2017-12-13T07:36:36.772Z,1.30
2017-12-13T07:39:06.558Z,1.30
2017-12-13T07:41:36.330Z,1.30
2017-12-13T07:44:06.121Z,1.30
2017-12-13T07:46:36.225Z,1.30
2017-12-13T07:49:06.365Z,1.30
2017-12-13T07:51:36.184Z,1.30
2017-12-13T07:54:06.170Z,1.30
2017-12-13T07:56:35.954Z,1.30
2017-12-13T07:59:05.612Z,1.30
2017-12-13T08:01:35.190Z,1.30
2017-12-13T08:04:05.010Z,1.30
2017-12-13T08:06:34.709Z,1.30
2017-12-13T08:09:04.428Z,1.30
2017-12-13T08:11:34.961Z,1.30
2017-12-13T08:14:04.871Z,1.30
2017-12-13T08:16:34.704Z,1.30
2017-12-13T08:19:04.292Z,1.30
2017-12-13T08:21:34.000Z,1.30
2017-12-13T08:24:03.984Z,1.30
2017-12-13T08:26:33.548Z,1.30
2017-12-13T08:29:03.253Z,1.30
2017-12-13T08:31:33.247Z,1.30
2017-12-13T08:34:02.875Z,1.30
2017-12-13T08:36:32.462Z,1.30
2017-12-13T08:39:02.174Z,1.30
2017-12-13T08:41:32.752Z,1.30
2017-12-13T08:44:02.507Z,1.30
2017-12-13T08:46:32.140Z,1.30
2017-12-13T08:49:01.849Z,1.30
2017-12-13T08:51:31.519Z,1.30
2017-12-13T08:54:01.359Z,1.30
2017-12-13T08:56:31.175Z,1.30
2017-12-13T08:59:01.091Z,1.30
2017-12-13T09:01:31.754Z,1.30
2017-12-13T09:04:01.416Z,1.30
2017-12-13T09:06:31.068Z,1.30
2017-12-13T09:09:00.768Z,1.30
2017-12-13T09:11:30.459Z,1.30
2017-12-13T09:14:01.022Z,1.30
2017-12-13T09:16:30.696Z,1.30
2017-12-13T09:19:00.662Z,1.30
2017-12-13T09:21:30.442Z,1.30
2017-12-13T09:24:00.231Z,1.30
2017-12-13T09:26:30.068Z,1.30
2017-12-13T09:28:59.701Z,1.30
2017-12-13T09:31:29.772Z,1.30
2017-12-13T09:33:59.508Z,1.30
2017-12-13T09:36:29.193Z,1.30
2017-12-13T09:39:00.553Z,1.30
2017-12-13T09:41:30.370Z,1.30
2017-12-13T09:44:00.144Z,1.30
2017-12-13T09:46:30.078Z,1.30
2017-12-13T09:49:00.196Z,1.30
2017-12-13T09:51:30.519Z,1.30
2017-12-13T09:54:00.357Z,1.30
2017-12-13T09:56:30.845Z,1.30
2017-12-13T09:59:00.895Z,1.30
2017-12-13T10:01:31.583Z,1.30
2017-12-13T10:04:01.805Z,1.30
2017-12-13T10:06:31.621Z,1.30
2017-12-13T10:09:02.086Z,1.30
2017-12-13T10:11:31.886Z,1.30
2017-12-13T10:14:01.518Z,1.30
2017-12-13T10:16:31.630Z,1.30
2017-12-13T10:19:01.296Z,1.30
2017-12-13T10:21:31.539Z,1.30
2017-12-13T10:24:01.250Z,1.30
2017-12-13T10:26:31.752Z,1.30
2017-12-13T10:29:01.855Z,1.30
2017-12-13T10:31:31.532Z,1.30
2017-12-13T10:34:01.329Z,1.30
2017-12-13T10:36:31.232Z,1.30
2017-12-13T10:39:02.582Z,1.30
2017-12-13T10:41:32.290Z,1.30
2017-12-13T10:44:02.211Z,1.30
2017-12-13T10:46:32.063Z,1.30
2017-12-13T10:49:02.306Z,1.30
2017-12-13T10:51:31.948Z,1.30
2017-12-13T10:54:01.889Z,1.30
2017-12-13T10:56:31.571Z,1.30
2017-12-13T10:59:01.484Z,1.40
2017-12-13T11:01:31.110Z,1.40
2017-12-13T11:04:01.111Z,1.40
2017-12-13T11:06:32.664Z,1.40
2017-12-13T11:09:02.576Z,1.40
2017-12-13T11:11:33.895Z,1.30
2017-12-13T11:14:03.788Z,1.40
2017-12-13T11:16:33.500Z,1.30
2017-12-13T11:19:03.438Z,1.40
2017-12-13T11:21:33.078Z,1.40
2017-12-13T11:24:03.084Z,1.40
2017-12-13T11:26:32.708Z,1.40
2017-12-13T11:29:02.707Z,1.40
2017-12-13T11:31:33.006Z,1.40
2017-12-13T11:34:02.697Z,1.40
2017-12-13T11:36:32.443Z,1.40
2017-12-13T11:39:02.077Z,1.40
2017-12-13T11:41:32.087Z,1.40
2017-12-13T11:44:01.917Z,1.40
2017-12-13T11:46:32.518Z,1.40
2017-12-13T11:49:02.638Z,1.40
2017-12-13T11:51:32.184Z,1.40
2017-12-13T11:54:01.993Z,1.40
2017-12-13T11:56:31.757Z,1.40
2017-12-13T11:59:01.558Z,1.30
2017-12-13T12:01:31.419Z,1.40
2017-12-13T12:04:01.333Z,1.40
2017-12-13T12:06:31.940Z,1.40
2017-12-13T12:09:03.208Z,1.30
2017-12-13T12:11:33.944Z,1.40
2017-12-13T12:14:04.544Z,1.40
2017-12-13T12:16:34.488Z,1.30
2017-12-13T12:19:04.356Z,1.40
2017-12-13T12:21:34.083Z,1.40
2017-12-13T12:24:03.636Z,1.40
2017-12-13T12:26:33.414Z,1.30
2017-12-13T12:29:03.137Z,1.40
2017-12-13T12:31:32.905Z,1.40
2017-12-13T12:34:02.743Z,1.40
2017-12-13T12:36:32.513Z,1.40
2017-12-13T12:39:02.385Z,1.40
2017-12-13T12:41:33.080Z,1.40
2017-12-13T12:44:02.965Z,1.40
2017-12-13T12:46:32.765Z,1.40
2017-12-13T12:49:02.834Z,1.40
2017-12-13T12:51:32.851Z,1.40
2017-12-13T12:54:03.381Z,1.40
2017-12-13T12:56:33.216Z,1.40
2017-12-13T12:59:03.119Z,1.40
2017-12-13T13:01:32.835Z,1.40
2017-12-13T13:04:02.837Z,1.40
2017-12-13T13:06:32.676Z,1.40
2017-12-13T13:09:03.284Z,1.40
2017-12-13T13:11:33.117Z,1.40
2017-12-13T13:14:03.724Z,1.40
2017-12-13T13:16:33.633Z,1.40
2017-12-13T13:19:03.552Z,1.40
2017-12-13T13:21:33.852Z,1.40
2017-12-13T13:24:03.485Z,1.40
2017-12-13T13:26:33.622Z,1.40
2017-12-13T13:29:03.544Z,1.30
2017-12-13T13:31:34.355Z,1.40
2017-12-13T13:34:03.991Z,1.30
2017-12-13T13:36:34.162Z,1.40
2017-12-13T13:39:04.095Z,1.40
2017-12-13T13:41:34.453Z,1.40
2017-12-13T13:44:04.214Z,1.30
2017-12-13T13:46:40.242Z,1.30
2017-12-13T13:49:10.222Z,1.30
2017-12-13T13:51:41.022Z,1.30
2017-12-13T13:54:11.078Z,1.30
2017-12-13T13:56:40.779Z,1.30
2017-12-13T13:59:10.619Z,1.30
2017-12-13T14:01:41.394Z,1.30
2017-12-13T14:04:11.158Z,1.30
2017-12-13T14:06:41.444Z,1.30
2017-12-13T14:09:11.490Z,1.30
2017-12-13T14:11:42.092Z,1.30
2017-12-13T14:14:13.242Z,1.30
2017-12-13T14:16:43.238Z,1.30
2017-12-13T14:19:13.427Z,1.30
2017-12-13T14:21:43.189Z,1.30
2017-12-13T14:24:13.916Z,1.30
2017-12-13T14:26:44.083Z,1.30
2017-12-13T14:29:13.950Z,1.30
2017-12-13T14:31:45.395Z,1.30
2017-12-13T14:34:15.152Z,1.30
2017-12-13T14:36:45.949Z,1.30
2017-12-13T14:39:15.873Z,1.30
2017-12-13T14:41:45.572Z,1.30
2017-12-13T14:44:15.228Z,1.30
2017-12-13T14:46:44.996Z,1.30
2017-12-13T14:49:14.952Z,1.30
2017-12-13T14:51:44.513Z,1.30
2017-12-13T14:54:14.357Z,1.30
2017-12-13T14:56:44.160Z,1.30
2017-12-13T14:59:14.134Z,1.40
2017-12-13T15:01:43.864Z,1.60
2017-12-13T15:04:13.779Z,1.70
2017-12-13T15:06:45.125Z,1.90
2017-12-13T15:09:14.968Z,1.90
2017-12-13T15:11:46.795Z,2.00
2017-12-13T15:14:18.032Z,2.00
2017-12-13T15:16:47.599Z,2.10
2017-12-13T15:19:17.692Z,2.10
2017-12-13T15:21:47.604Z,2.20
2017-12-13T15:24:18.825Z,2.20
2017-12-13T15:26:48.872Z,2.20
2017-12-13T15:29:18.664Z,2.20
2017-12-13T15:31:49.032Z,2.20
2017-12-13T15:34:18.911Z,2.30
2017-12-13T15:36:48.950Z,2.30
2017-12-13T15:39:18.856Z,2.30
2017-12-13T15:41:49.454Z,2.30
2017-12-13T15:44:19.404Z,2.30
2017-12-13T15:46:49.283Z,2.40
2017-12-13T15:49:19.100Z,2.30
2017-12-13T15:51:49.180Z,2.30
2017-12-13T15:54:19.037Z,2.30
2017-12-13T15:56:48.940Z,2.30
2017-12-13T15:59:18.786Z,2.30
2017-12-13T16:01:49.593Z,2.30
2017-12-13T16:04:19.432Z,2.30
2017-12-13T16:06:49.754Z,2.30
2017-12-13T16:09:20.278Z,2.30
2017-12-13T16:11:50.103Z,2.30
2017-12-13T16:14:20.389Z,2.30
2017-12-13T16:16:50.516Z,2.30
2017-12-13T16:19:20.333Z,2.30
2017-12-13T16:21:50.337Z,2.30
2017-12-13T16:24:20.393Z,2.30
2017-12-13T16:26:51.394Z,2.30
2017-12-13T16:29:21.066Z,2.30
2017-12-13T16:31:50.813Z,2.40
2017-12-13T16:34:20.807Z,2.40
2017-12-13T16:36:50.710Z,2.30
2017-12-13T16:39:20.793Z,2.30
2017-12-13T16:41:51.914Z,2.30
2017-12-13T16:44:22.688Z,2.30
2017-12-13T16:46:52.761Z,2.30
2017-12-13T16:49:23.269Z,2.30
2017-12-13T16:51:53.492Z,2.30
2017-12-13T16:54:24.593Z,2.30
2017-12-13T16:56:55.309Z,2.30
2017-12-13T16:59:25.321Z,2.30
2017-12-13T17:01:55.121Z,2.30
2017-12-13T17:04:25.101Z,2.30
2017-12-13T17:06:54.949Z,2.20
2017-12-13T17:09:24.624Z,2.20
2017-12-13T17:11:54.479Z,2.30
2017-12-13T17:14:24.392Z,2.20
2017-12-13T17:16:55.732Z,2.20
2017-12-13T17:19:25.592Z,2.20
2017-12-13T17:21:55.462Z,2.20
2017-12-13T17:24:25.268Z,2.20
2017-12-13T17:26:55.833Z,2.20
2017-12-13T17:29:25.911Z,2.20
2017-12-13T17:31:55.820Z,2.20
2017-12-13T17:34:25.667Z,2.20
2017-12-13T17:36:56.575Z,2.10
2017-12-13T17:39:26.961Z,2.10
2017-12-13T17:41:57.327Z,2.20
2017-12-13T17:44:27.374Z,2.10
2017-12-13T17:46:58.109Z,2.20
2017-12-13T17:49:28.778Z,2.20
2017-12-13T17:51:59.584Z,2.10
2017-12-13T17:54:29.809Z,2.10
2017-12-13T17:56:59.871Z,2.10
2017-12-13T17:59:29.810Z,2.10
2017-12-13T18:02:00.126Z,2.10
2017-12-13T18:04:29.960Z,2.10
2017-12-13T18:06:59.881Z,2.10
2017-12-13T18:09:30.857Z,2.10
2017-12-13T18:12:00.812Z,2.10
2017-12-13T18:14:30.927Z,2.10
2017-12-13T18:17:00.950Z,2.10
2017-12-13T18:19:31.266Z,2.10
2017-12-13T18:22:01.891Z,2.00
2017-12-13T18:24:31.920Z,2.10
2017-12-13T18:27:01.883Z,2.10
2017-12-13T18:29:31.787Z,2.10
2017-12-13T18:32:01.999Z,2.10
2017-12-13T18:34:32.119Z,2.10
2017-12-13T18:37:03.547Z,2.10
2017-12-13T18:39:33.517Z,2.00
2017-12-13T18:42:03.760Z,2.00
2017-12-13T18:44:33.693Z,2.00
2017-12-13T18:47:04.141Z,2.00
2017-12-13T18:49:34.795Z,2.00
2017-12-13T18:52:05.056Z,2.00
2017-12-13T18:54:35.941Z,2.00
2017-12-13T18:57:06.905Z,2.00
2017-12-13T18:59:37.034Z,2.00
2017-12-13T19:02:07.236Z,2.00
2017-12-13T19:04:37.355Z,2.00
2017-12-13T19:07:07.286Z,2.00
2017-12-13T19:09:37.735Z,2.00
2017-12-13T19:12:07.910Z,2.00
2017-12-13T19:14:37.991Z,2.00
2017-12-13T19:17:08.511Z,2.00
2017-12-13T19:19:38.365Z,2.00
2017-12-13T19:22:08.342Z,2.00
2017-12-13T19:24:38.602Z,2.00
2017-12-13T19:27:08.911Z,2.00
2017-12-13T19:29:39.644Z,2.00
2017-12-13T19:32:10.045Z,2.00
2017-12-13T19:34:40.786Z,2.00
2017-12-13T19:37:10.716Z,1.90
2017-12-13T19:39:42.799Z,2.00
2017-12-13T19:42:13.350Z,2.00
2017-12-13T19:44:44.027Z,2.00
2017-12-13T19:47:14.086Z,2.00
2017-12-13T19:49:44.266Z,2.00
2017-12-13T19:52:16.910Z,1.90
2017-12-13T19:54:46.892Z,1.90
2017-12-13T19:57:16.931Z,1.90
2017-12-13T19:59:46.988Z,1.90
2017-12-13T20:02:16.959Z,1.90
2017-12-13T20:04:47.160Z,1.90
2017-12-13T20:07:17.896Z,2.00
2017-12-13T20:09:48.595Z,1.90
2017-12-13T20:12:18.774Z,1.90
2017-12-13T20:14:48.552Z,1.90
2017-12-13T20:17:19.155Z,1.90
2017-12-13T20:19:49.106Z,1.90
2017-12-13T20:22:18.835Z,1.90
2017-12-13T20:24:49.919Z,1.90
2017-12-13T20:27:20.448Z,1.90
2017-12-13T20:29:51.333Z,1.90
2017-12-13T20:32:21.850Z,1.90
2017-12-13T20:34:52.847Z,1.90
2017-12-13T20:37:23.568Z,1.90
2017-12-13T20:39:53.711Z,1.90
2017-12-13T20:42:23.969Z,1.90
2017-12-13T20:44:54.970Z,1.90
2017-12-13T20:47:25.105Z,1.90
2017-12-13T20:49:55.204Z,1.90
2017-12-13T20:52:25.190Z,1.90
2017-12-13T20:54:55.175Z,1.90
2017-12-13T20:57:25.977Z,1.90
2017-12-13T20:59:56.245Z,1.90
2017-12-13T21:02:26.152Z,1.90
2017-12-13T21:04:56.182Z,1.90
2017-12-13T21:07:26.246Z,1.90
2017-12-13T21:09:56.101Z,1.80
2017-12-13T21:12:26.154Z,1.90
2017-12-13T21:14:56.138Z,1.90
2017-12-13T21:17:26.250Z,1.90
2017-12-13T21:19:56.164Z,1.80
2017-12-13T21:22:26.757Z,1.90
2017-12-13T21:24:56.801Z,1.90
2017-12-13T21:27:27.541Z,1.90
2017-12-13T21:29:58.344Z,1.90
2017-12-13T21:32:42.800Z,1.80
2017-12-13T21:35:12.860Z,1.90
2017-12-13T21:37:42.837Z,1.90
2017-12-13T21:40:13.368Z,1.90
2017-12-13T21:42:43.466Z,1.90
2017-12-13T21:45:13.846Z,1.90
2017-12-13T21:47:43.767Z,1.90
2017-12-13T21:50:13.890Z,1.90
2017-12-13T21:52:43.920Z,1.90
2017-12-13T21:55:13.907Z,1.90
2017-12-13T21:57:43.915Z,1.90
2017-12-13T22:00:14.924Z,1.90
2017-12-13T22:02:45.053Z,1.90
2017-12-13T22:05:15.126Z,1.90
2017-12-13T22:07:45.489Z,1.90
2017-12-13T22:10:16.135Z,1.90
2017-12-13T22:12:46.004Z,1.90
2017-12-13T22:15:16.192Z,1.90
2017-12-13T22:17:46.198Z,1.90
2017-12-13T22:20:16.922Z,1.90
2017-12-13T22:22:46.817Z,1.90
2017-12-13T22:25:16.444Z,1.90
2017-12-13T22:27:46.209Z,1.90
2017-12-13T22:30:16.091Z,1.90
2017-12-13T22:32:45.861Z,1.90
2017-12-13T22:35:15.883Z,1.90
2017-12-13T22:37:46.010Z,1.90
2017-12-13T22:40:15.808Z,1.90
2017-12-13T22:42:45.778Z,1.90
2017-12-13T22:45:15.778Z,1.90
2017-12-13T22:47:46.782Z,1.90
2017-12-13T22:50:16.697Z,1.90
2017-12-13T22:52:46.754Z,1.90
2017-12-13T22:55:16.729Z,1.90
2017-12-13T22:57:47.052Z,1.90
2017-12-13T23:00:17.261Z,1.90
2017-12-13T23:02:47.086Z,1.90
2017-12-13T23:05:17.005Z,1.90
2017-12-13T23:07:47.264Z,2.00
2017-12-13T23:10:17.167Z,2.00
2017-12-13T23:12:47.675Z,2.00
2017-12-13T23:15:17.820Z,1.90
2017-12-13T23:17:47.697Z,2.00
2017-12-13T23:20:17.542Z,2.00
2017-12-13T23:22:48.181Z,2.00
2017-12-13T23:25:18.190Z,2.00
2017-12-13T23:27:48.317Z,2.00
2017-12-13T23:30:18.220Z,1.90
2017-12-13T23:32:48.962Z,2.00
2017-12-13T23:35:19.074Z,2.00
2017-12-13T23:37:49.571Z,2.00
2017-12-13T23:40:19.314Z,2.00
2017-12-13T23:42:49.420Z,2.00
2017-12-13T23:45:18.971Z,2.00
2017-12-13T23:47:48.661Z,2.00
2017-12-13T23:50:18.566Z,2.00
2017-12-13T23:52:48.961Z,2.00
2017-12-13T23:55:18.637Z,2.00
2017-12-13T23:57:48.232Z,2.00
